createdAt,value
2023-04-16T00:01:51.579Z,7.83
2023-04-16T00:04:18.893Z,7.03
2023-04-16T00:06:45.952Z,6.10
2023-04-16T00:09:12.872Z,5.30
2023-04-16T00:11:39.699Z,6.93
2023-04-16T00:14:06.590Z,7.07
2023-04-16T00:16:33.551Z,9.23
2023-04-16T00:19:00.383Z,8.87
2023-04-16T00:21:27.659Z,5.53
2023-04-16T00:23:54.638Z,9.37
2023-04-16T00:26:21.465Z,6.23
2023-04-16T00:28:48.291Z,9.40
2023-04-16T00:31:15.102Z,14.43
2023-04-16T00:33:42.051Z,9.67
2023-04-16T00:36:09.835Z,8.63
2023-04-16T00:38:37.464Z,7.57
2023-04-16T00:41:04.396Z,8.47
2023-04-16T00:43:31.782Z,11.77
2023-04-16T00:45:59.559Z,8.50
2023-04-16T00:48:28.334Z,7.63
2023-04-16T00:50:55.987Z,8.63
2023-04-16T00:53:23.526Z,6.97
2023-04-16T00:55:51.120Z,12.00
2023-04-16T00:58:18.379Z,9.63
2023-04-16T01:00:45.401Z,7.17
2023-04-16T01:03:12.470Z,8.87
2023-04-16T01:05:39.643Z,3.57
2023-04-16T01:08:06.848Z,8.83
2023-04-16T01:10:33.610Z,7.43
2023-04-16T01:13:00.530Z,5.37
2023-04-16T01:15:27.407Z,7.80
2023-04-16T01:17:54.205Z,5.80
2023-04-16T01:20:21.079Z,8.30
2023-04-16T01:22:47.866Z,3.17
2023-04-16T01:25:16.099Z,3.27
2023-04-16T01:27:42.940Z,4.43
2023-04-16T01:30:10.016Z,7.43
2023-04-16T01:32:36.978Z,10.13
2023-04-16T01:35:04.069Z,5.93
2023-04-16T01:37:31.482Z,6.10
2023-04-16T01:39:58.305Z,5.40
2023-04-16T01:42:25.150Z,7.37
2023-04-16T01:44:51.931Z,6.10
2023-04-16T01:47:18.802Z,7.63
2023-04-16T01:49:48.219Z,8.40
2023-04-16T01:52:15.079Z,3.93
2023-04-16T01:54:42.006Z,4.07
2023-04-16T01:57:09.230Z,4.40
2023-04-16T01:59:36.108Z,7.93
2023-04-16T02:02:11.578Z,4.50
2023-04-16T02:04:39.650Z,5.43
2023-04-16T02:07:06.869Z,4.60
2023-04-16T02:09:37.728Z,5.57
2023-04-16T02:12:04.803Z,3.50
2023-04-16T02:14:32.566Z,6.93
2023-04-16T02:17:00.382Z,7.87
2023-04-16T02:19:27.690Z,6.93
2023-04-16T02:21:55.111Z,6.30
2023-04-16T02:24:22.165Z,5.03
2023-04-16T02:26:49.083Z,5.53
2023-04-16T02:29:16.648Z,6.80
2023-04-16T02:31:44.508Z,7.20
2023-04-16T02:34:11.460Z,5.60
2023-04-16T02:36:38.768Z,9.10
2023-04-16T02:39:05.765Z,6.27
2023-04-16T02:41:32.994Z,6.33
2023-04-16T02:44:00.014Z,10.10
2023-04-16T02:46:26.932Z,7.07
2023-04-16T02:48:53.997Z,6.17
2023-04-16T02:51:21.398Z,8.37
2023-04-16T02:53:48.312Z,7.37
2023-04-16T02:56:15.097Z,9.40
2023-04-16T02:58:42.073Z,9.87
2023-04-16T03:01:09.004Z,8.90
2023-04-16T03:03:36.221Z,9.23
2023-04-16T03:06:03.190Z,6.63
2023-04-16T03:08:30.007Z,9.33
2023-04-16T03:10:56.862Z,7.07
2023-04-16T03:13:23.720Z,7.80
2023-04-16T03:15:50.948Z,8.60
2023-04-16T03:18:17.914Z,7.07
2023-04-16T03:20:44.675Z,11.60
2023-04-16T03:23:11.460Z,10.17
2023-04-16T03:25:40.594Z,11.07
2023-04-16T03:28:07.508Z,10.63
2023-04-16T03:30:34.421Z,7.63
2023-04-16T03:33:01.353Z,11.40
2023-04-16T03:35:28.163Z,9.27
2023-04-16T03:37:55.034Z,9.80
2023-04-16T03:40:21.960Z,8.57
2023-04-16T03:42:48.826Z,11.47
2023-04-16T03:45:15.876Z,14.27
2023-04-16T03:47:42.786Z,10.13
2023-04-16T03:50:11.636Z,9.70
2023-04-16T03:52:38.573Z,10.00
2023-04-16T03:55:06.086Z,8.20
2023-04-16T03:57:33.003Z,7.17
2023-04-16T03:59:59.945Z,12.13
2023-04-16T04:02:27.385Z,10.57
2023-04-16T04:04:54.521Z,10.30
2023-04-16T04:07:21.294Z,8.50
2023-04-16T04:09:48.249Z,8.07
2023-04-16T04:12:15.343Z,9.90
2023-04-16T04:14:42.159Z,13.80
2023-04-16T04:17:09.414Z,10.97
2023-04-16T04:19:37.748Z,10.03
2023-04-16T04:22:05.715Z,12.30
2023-04-16T04:24:32.790Z,8.33
2023-04-16T04:26:59.608Z,10.40
2023-04-16T04:29:26.479Z,9.30
2023-04-16T04:31:53.623Z,7.97
2023-04-16T04:34:20.696Z,8.93
2023-04-16T04:36:47.504Z,8.93
2023-04-16T04:39:14.283Z,11.83
2023-04-16T04:41:41.098Z,9.27
2023-04-16T04:44:07.942Z,9.53
2023-04-16T04:46:34.808Z,10.57
2023-04-16T04:49:01.585Z,8.43
2023-04-16T04:51:28.432Z,10.87
2023-04-16T04:53:55.295Z,9.73
2023-04-16T04:56:22.190Z,11.33
2023-04-16T04:58:51.129Z,10.63
2023-04-16T05:01:18.230Z,10.53
2023-04-16T05:03:45.291Z,10.73
2023-04-16T05:06:12.248Z,9.60
2023-04-16T05:08:39.307Z,10.27
2023-04-16T05:11:06.391Z,8.53
2023-04-16T05:13:33.264Z,11.57
2023-04-16T05:16:00.563Z,13.30
2023-04-16T05:18:27.823Z,12.03
2023-04-16T05:20:54.654Z,9.40
2023-04-16T05:23:21.445Z,9.63
2023-04-16T05:25:48.346Z,7.50
2023-04-16T05:28:15.168Z,13.30
2023-04-16T05:30:42.013Z,10.77
2023-04-16T05:33:08.888Z,10.73
2023-04-16T05:35:35.718Z,10.60
2023-04-16T05:38:04.399Z,9.93
2023-04-16T05:40:31.994Z,10.40
2023-04-16T05:42:58.939Z,12.20
2023-04-16T05:45:27.964Z,12.30
2023-04-16T05:47:55.175Z,10.13
2023-04-16T05:50:22.108Z,12.87
2023-04-16T05:52:49.030Z,10.33
2023-04-16T05:55:15.977Z,12.60
2023-04-16T05:57:42.777Z,12.73
2023-04-16T06:00:09.909Z,13.13
2023-04-16T06:02:36.952Z,12.53
2023-04-16T06:05:04.179Z,10.30
2023-04-16T06:07:31.113Z,18.27
2023-04-16T06:09:57.992Z,10.77
2023-04-16T06:12:24.903Z,13.33
2023-04-16T06:14:51.885Z,16.70
2023-04-16T06:17:19.516Z,14.30
2023-04-16T06:19:46.384Z,12.60
2023-04-16T06:22:13.301Z,17.07
2023-04-16T06:24:40.249Z,17.50
2023-04-16T06:27:07.309Z,14.60
2023-04-16T06:29:41.187Z,22.17
2023-04-16T06:32:09.170Z,16.03
2023-04-16T06:34:36.237Z,16.73
2023-04-16T06:37:03.058Z,17.73
2023-04-16T06:39:30.241Z,17.90
2023-04-16T06:41:57.506Z,19.73
2023-04-16T06:44:24.387Z,12.33
2023-04-16T06:46:51.624Z,17.57
2023-04-16T06:49:18.449Z,24.90
2023-04-16T06:51:45.538Z,22.87
2023-04-16T06:54:12.290Z,21.37
2023-04-16T06:56:39.122Z,21.27
2023-04-16T06:59:06.233Z,16.73
2023-04-16T07:01:33.171Z,28.50
2023-04-16T07:04:00.375Z,18.27
2023-04-16T07:06:27.913Z,21.53
2023-04-16T07:08:54.681Z,18.63
2023-04-16T07:11:22.433Z,19.57
2023-04-16T07:13:51.148Z,24.30
2023-04-16T07:16:18.292Z,20.87
2023-04-16T07:18:45.167Z,20.77
2023-04-16T07:21:12.016Z,21.87
2023-04-16T07:23:38.970Z,18.80
2023-04-16T07:26:05.974Z,25.33
2023-04-16T07:28:32.865Z,18.93
2023-04-16T07:31:00.366Z,19.63
2023-04-16T07:33:27.576Z,24.03
2023-04-16T07:35:54.440Z,22.23
2023-04-16T07:38:21.459Z,27.10
2023-04-16T07:40:48.426Z,21.20
2023-04-16T07:43:16.536Z,21.10
2023-04-16T07:45:43.366Z,20.90
2023-04-16T07:48:10.216Z,20.67
2023-04-16T07:50:37.344Z,21.93
2023-04-16T07:53:05.930Z,21.03
2023-04-16T07:55:32.821Z,21.97
2023-04-16T07:57:59.665Z,21.43
2023-04-16T08:00:26.615Z,21.97
2023-04-16T08:02:53.802Z,18.50
2023-04-16T08:05:21.034Z,23.80
2023-04-16T08:07:47.887Z,21.83
2023-04-16T08:10:14.858Z,22.60
2023-04-16T08:12:41.680Z,19.23
2023-04-16T08:15:08.963Z,16.33
2023-04-16T08:17:37.694Z,23.10
2023-04-16T08:20:05.892Z,20.53
2023-04-16T08:22:33.818Z,19.93
2023-04-16T08:25:00.655Z,18.07
2023-04-16T08:27:27.471Z,20.47
2023-04-16T08:29:54.297Z,20.30
2023-04-16T08:32:21.196Z,20.63
2023-04-16T08:34:48.048Z,15.63
2023-04-16T08:37:14.806Z,15.57
2023-04-16T08:39:41.796Z,16.07
2023-04-16T08:42:25.134Z,22.23
2023-04-16T08:45:00.185Z,17.70
2023-04-16T08:47:29.104Z,21.77
2023-04-16T08:49:58.505Z,15.40
2023-04-16T08:52:30.769Z,19.80
2023-04-16T08:55:08.204Z,26.00
2023-04-16T08:57:41.617Z,20.83
2023-04-16T09:00:09.878Z,19.10
2023-04-16T09:02:37.405Z,21.83
2023-04-16T09:05:07.218Z,19.70
2023-04-16T09:07:35.569Z,18.07
2023-04-16T09:10:03.494Z,18.33
2023-04-16T09:12:31.423Z,19.57
2023-04-16T09:15:01.208Z,20.20
2023-04-16T09:17:28.527Z,18.37
2023-04-16T09:19:55.613Z,18.23
2023-04-16T09:22:22.397Z,15.50
2023-04-16T09:24:49.256Z,20.17
2023-04-16T09:27:17.099Z,14.67
2023-04-16T09:29:44.074Z,17.60
2023-04-16T09:32:12.224Z,16.77
2023-04-16T09:34:58.873Z,17.50
2023-04-16T09:37:27.417Z,14.90
2023-04-16T09:39:59.989Z,18.17
2023-04-16T09:42:29.049Z,17.00
2023-04-16T09:44:59.412Z,18.63
2023-04-16T09:47:42.627Z,18.33
2023-04-16T09:50:16.473Z,21.40
2023-04-16T09:52:48.126Z,13.57
2023-04-16T09:55:15.447Z,15.67
2023-04-16T09:57:44.919Z,16.23
2023-04-16T10:00:12.370Z,17.97
2023-04-16T10:02:42.709Z,16.00
2023-04-16T10:05:10.024Z,15.47
2023-04-16T10:07:37.862Z,13.90
2023-04-16T10:10:05.525Z,14.97
2023-04-16T10:12:35.693Z,19.17
2023-04-16T10:15:02.639Z,16.40
2023-04-16T10:17:30.572Z,14.13
2023-04-16T10:19:58.605Z,15.20
2023-04-16T10:22:26.551Z,12.70
2023-04-16T10:24:54.797Z,12.60
2023-04-16T10:27:21.955Z,15.47
2023-04-16T10:29:49.823Z,17.93
2023-04-16T10:32:19.049Z,14.63
2023-04-16T10:34:46.197Z,16.87
2023-04-16T10:37:13.010Z,14.33
2023-04-16T10:39:39.850Z,12.20
2023-04-16T10:42:09.167Z,16.83
2023-04-16T10:44:36.597Z,16.73
2023-04-16T10:47:10.225Z,15.80
2023-04-16T10:49:37.106Z,13.87
2023-04-16T10:52:17.055Z,14.47
2023-04-16T10:54:43.959Z,15.60
2023-04-16T10:57:16.401Z,15.30
2023-04-16T10:59:44.342Z,14.70
2023-04-16T11:02:18.815Z,12.73
2023-04-16T11:04:48.223Z,15.60
2023-04-16T11:07:17.197Z,15.83
2023-04-16T11:09:48.047Z,11.40
2023-04-16T11:12:18.522Z,12.73
2023-04-16T11:14:50.828Z,14.07
2023-04-16T11:17:18.660Z,10.50
2023-04-16T11:19:45.588Z,13.83
2023-04-16T11:22:15.098Z,13.47
2023-04-16T11:24:42.270Z,12.80
2023-04-16T11:27:09.100Z,11.87
2023-04-16T11:29:36.106Z,16.60
2023-04-16T11:32:03.185Z,11.97
2023-04-16T11:34:30.014Z,10.60
2023-04-16T11:36:56.973Z,13.07
2023-04-16T11:39:23.930Z,11.10
2023-04-16T11:41:52.582Z,10.60
2023-04-16T11:44:23.566Z,15.63
2023-04-16T11:46:51.966Z,11.07
2023-04-16T11:49:30.520Z,14.10
2023-04-16T11:51:58.025Z,10.93
2023-04-16T11:54:25.669Z,15.10
2023-04-16T11:56:53.722Z,11.73
2023-04-16T11:59:23.162Z,11.13
2023-04-16T12:01:50.952Z,14.87
2023-04-16T12:04:20.654Z,9.33
2023-04-16T12:07:06.704Z,13.83
2023-04-16T12:09:37.139Z,9.77
2023-04-16T12:12:06.849Z,14.37
2023-04-16T12:14:33.825Z,9.83
2023-04-16T12:17:20.126Z,9.77
2023-04-16T12:19:56.673Z,10.10
2023-04-16T12:22:31.990Z,8.37
2023-04-16T12:25:00.891Z,8.97
2023-04-16T12:27:53.321Z,10.67
2023-04-16T12:30:22.971Z,8.23
2023-04-16T12:33:13.925Z,9.03
2023-04-16T12:35:41.981Z,11.80
2023-04-16T12:38:09.201Z,10.30
2023-04-16T12:40:38.261Z,14.37
2023-04-16T12:43:05.428Z,7.37
2023-04-16T12:45:32.257Z,8.50
2023-04-16T12:47:59.577Z,8.57
2023-04-16T12:50:26.600Z,12.43
2023-04-16T12:52:53.501Z,9.97
2023-04-16T12:55:20.475Z,11.27
2023-04-16T12:57:48.939Z,11.60
2023-04-16T13:00:16.397Z,10.53
2023-04-16T13:02:43.320Z,9.90
2023-04-16T13:05:10.309Z,12.50
2023-04-16T13:07:37.270Z,10.97
2023-04-16T13:10:04.380Z,8.90
2023-04-16T13:12:32.758Z,11.40
2023-04-16T13:14:59.613Z,16.57
2023-04-16T13:17:26.567Z,10.47
2023-04-16T13:19:53.350Z,11.03
2023-04-16T13:22:20.774Z,15.47
2023-04-16T13:24:47.594Z,11.87
2023-04-16T13:27:16.199Z,21.23
2023-04-16T13:29:43.225Z,10.17
2023-04-16T13:32:10.194Z,12.53
2023-04-16T13:34:37.207Z,14.87
2023-04-16T13:37:04.097Z,9.93
2023-04-16T13:39:31.088Z,15.47
2023-04-16T13:41:58.016Z,14.30
2023-04-16T13:44:24.988Z,13.77
2023-04-16T13:46:52.498Z,15.77
2023-04-16T13:49:19.704Z,14.53
2023-04-16T13:51:46.621Z,14.10
2023-04-16T13:54:13.554Z,22.40
2023-04-16T13:56:40.946Z,14.73
2023-04-16T13:59:08.603Z,12.10
2023-04-16T14:01:35.830Z,13.50
2023-04-16T14:04:06.856Z,12.20
2023-04-16T14:06:34.770Z,16.23
2023-04-16T14:09:01.917Z,14.47
2023-04-16T14:11:29.052Z,17.77
2023-04-16T14:13:56.244Z,14.37
2023-04-16T14:16:23.460Z,15.57
2023-04-16T14:18:51.878Z,13.83
2023-04-16T14:21:19.107Z,17.40
2023-04-16T14:23:46.003Z,13.10
2023-04-16T14:26:13.041Z,13.20
2023-04-16T14:28:40.944Z,19.00
2023-04-16T14:31:07.930Z,18.30
2023-04-16T14:33:34.913Z,13.40
2023-04-16T14:36:03.221Z,14.60
2023-04-16T14:38:31.260Z,16.07
2023-04-16T14:40:58.219Z,13.23
2023-04-16T14:43:25.068Z,16.20
2023-04-16T14:45:52.871Z,15.53
2023-04-16T14:48:19.863Z,19.33
2023-04-16T14:50:46.826Z,19.90
2023-04-16T14:53:13.965Z,17.87
2023-04-16T14:55:40.862Z,16.50
2023-04-16T14:58:08.017Z,15.50
2023-04-16T15:00:35.825Z,20.50
2023-04-16T15:03:03.016Z,17.70
2023-04-16T15:05:31.586Z,17.30
2023-04-16T15:07:58.498Z,14.93
2023-04-16T15:10:25.324Z,16.23
2023-04-16T15:12:52.126Z,20.03
2023-04-16T15:15:19.025Z,18.77
2023-04-16T15:17:46.108Z,20.73
2023-04-16T15:20:13.582Z,20.20
2023-04-16T15:22:40.764Z,16.13
2023-04-16T15:25:08.222Z,18.07
2023-04-16T15:27:35.317Z,16.80
2023-04-16T15:30:02.243Z,17.43
2023-04-16T15:32:29.345Z,17.13
2023-04-16T15:34:56.287Z,20.07
2023-04-16T15:37:23.643Z,20.23
2023-04-16T15:39:50.552Z,18.10
2023-04-16T15:42:17.423Z,20.53
2023-04-16T15:44:44.447Z,17.60
2023-04-16T15:47:11.471Z,17.03
2023-04-16T15:49:38.476Z,20.77
2023-04-16T15:52:05.735Z,18.00
2023-04-16T15:54:32.647Z,16.13
2023-04-16T15:56:59.472Z,19.60
2023-04-16T15:59:26.953Z,16.80
2023-04-16T16:01:54.016Z,17.00
2023-04-16T16:04:26.377Z,15.90
2023-04-16T16:06:54.120Z,18.70
2023-04-16T16:09:26.235Z,14.90
2023-04-16T16:11:54.445Z,14.83
2023-04-16T16:14:22.361Z,16.47
2023-04-16T16:16:49.732Z,17.00
2023-04-16T16:19:16.907Z,17.67
2023-04-16T16:21:43.847Z,15.33
2023-04-16T16:24:10.710Z,23.33
2023-04-16T16:26:37.797Z,17.33
2023-04-16T16:29:05.311Z,18.00
2023-04-16T16:31:32.134Z,20.87
2023-04-16T16:33:59.009Z,21.27
2023-04-16T16:36:26.652Z,23.97
2023-04-16T16:38:53.582Z,25.43
2023-04-16T16:41:20.707Z,20.83
2023-04-16T16:43:47.691Z,19.33
2023-04-16T16:46:14.787Z,16.17
2023-04-16T16:48:41.626Z,17.83
2023-04-16T16:51:11.764Z,18.67
2023-04-16T16:53:38.696Z,20.37
2023-04-16T16:56:05.925Z,20.07
2023-04-16T16:58:32.818Z,16.93
2023-04-16T17:01:00.107Z,16.87
2023-04-16T17:03:27.078Z,19.07
2023-04-16T17:05:54.236Z,21.73
2023-04-16T17:08:21.329Z,22.77
2023-04-16T17:10:48.314Z,20.70
2023-04-16T17:13:19.732Z,17.10
2023-04-16T17:15:47.006Z,19.00
2023-04-16T17:18:13.924Z,29.70
2023-04-16T17:20:41.021Z,27.77
2023-04-16T17:23:07.854Z,21.47
2023-04-16T17:25:34.923Z,23.07
2023-04-16T17:28:02.458Z,20.07
2023-04-16T17:30:31.611Z,16.23
2023-04-16T17:32:58.526Z,23.30
2023-04-16T17:35:25.492Z,25.37
2023-04-16T17:37:52.407Z,24.23
2023-04-16T17:40:19.277Z,22.90
2023-04-16T17:42:46.237Z,35.37
2023-04-16T17:45:13.488Z,21.70
2023-04-16T17:47:40.696Z,20.30
2023-04-16T17:50:08.692Z,28.47
2023-04-16T17:52:37.422Z,24.60
2023-04-16T17:55:05.893Z,27.37
2023-04-16T17:57:32.719Z,20.07
2023-04-16T17:59:59.814Z,22.27
2023-04-16T18:02:26.799Z,27.53
2023-04-16T18:04:53.920Z,17.20
2023-04-16T18:07:21.057Z,21.40
2023-04-16T18:09:47.879Z,24.03
2023-04-16T18:12:14.792Z,19.00
2023-04-16T18:14:44.734Z,18.40
2023-04-16T18:17:11.819Z,17.53
2023-04-16T18:19:40.535Z,28.30
2023-04-16T18:22:07.348Z,21.27
2023-04-16T18:24:36.399Z,18.20
2023-04-16T18:27:03.902Z,22.70
2023-04-16T18:29:33.735Z,23.37
2023-04-16T18:32:03.936Z,20.23
2023-04-16T18:34:31.979Z,19.13
2023-04-16T18:36:58.822Z,17.93
2023-04-16T18:39:25.638Z,16.97
2023-04-16T18:41:52.421Z,16.20
2023-04-16T18:44:19.927Z,19.07
2023-04-16T18:46:46.878Z,17.70
2023-04-16T18:49:13.843Z,16.47
2023-04-16T18:51:42.052Z,19.03
2023-04-16T18:54:09.269Z,17.27
2023-04-16T18:56:36.194Z,16.57
2023-04-16T18:59:03.150Z,18.93
2023-04-16T19:01:30.024Z,15.20
2023-04-16T19:03:57.153Z,18.80
2023-04-16T19:06:24.011Z,18.77
2023-04-16T19:08:51.010Z,15.67
2023-04-16T19:11:17.988Z,20.07
2023-04-16T19:13:44.928Z,22.33
2023-04-16T19:16:12.358Z,22.83
2023-04-16T19:18:39.487Z,19.70
2023-04-16T19:21:07.281Z,18.10
2023-04-16T19:23:34.227Z,22.90
2023-04-16T19:26:01.616Z,19.23
2023-04-16T19:28:28.782Z,18.27
2023-04-16T19:30:56.031Z,22.60
2023-04-16T19:33:23.014Z,19.50
2023-04-16T19:35:49.787Z,22.10
2023-04-16T19:38:16.706Z,20.93
2023-04-16T19:40:48.262Z,22.07
2023-04-16T19:43:15.434Z,20.27
2023-04-16T19:45:54.931Z,20.73
2023-04-16T19:48:21.845Z,18.93
2023-04-16T19:50:48.892Z,18.03
2023-04-16T19:53:17.265Z,20.53
2023-04-16T19:55:44.288Z,17.70
2023-04-16T19:58:11.231Z,18.80
2023-04-16T20:00:40.830Z,21.23
2023-04-16T20:03:08.062Z,21.00
2023-04-16T20:05:35.189Z,20.30
2023-04-16T20:08:02.178Z,21.93
2023-04-16T20:10:31.308Z,20.57
2023-04-16T20:12:58.636Z,19.40
2023-04-16T20:15:25.878Z,22.17
2023-04-16T20:17:53.424Z,21.47
2023-04-16T20:20:23.688Z,20.13
2023-04-16T20:22:50.881Z,19.43
2023-04-16T20:25:20.719Z,19.07
2023-04-16T20:27:47.735Z,21.37
2023-04-16T20:30:14.957Z,19.93
2023-04-16T20:32:41.935Z,22.53
2023-04-16T20:35:11.421Z,22.70
2023-04-16T20:37:42.102Z,19.70
2023-04-16T20:40:10.858Z,17.23
2023-04-16T20:42:37.850Z,19.80
2023-04-16T20:45:05.226Z,22.00
2023-04-16T20:47:34.763Z,23.97
2023-04-16T20:50:02.698Z,22.13
2023-04-16T20:52:29.556Z,20.20
2023-04-16T20:54:56.409Z,20.93
2023-04-16T20:57:23.253Z,21.80
2023-04-16T20:59:50.051Z,21.03
2023-04-16T21:02:17.056Z,20.17
2023-04-16T21:04:44.160Z,17.00
2023-04-16T21:07:11.488Z,19.57
2023-04-16T21:09:38.269Z,17.33
2023-04-16T21:12:05.521Z,18.77
2023-04-16T21:14:32.381Z,18.27
2023-04-16T21:16:59.197Z,20.63
2023-04-16T21:19:26.189Z,20.93
2023-04-16T21:21:53.062Z,18.90
2023-04-16T21:24:20.070Z,19.67
2023-04-16T21:26:46.921Z,22.53
2023-04-16T21:29:13.840Z,19.93
2023-04-16T21:31:40.847Z,19.93
2023-04-16T21:34:07.774Z,17.87
2023-04-16T21:36:35.091Z,18.93
2023-04-16T21:39:02.172Z,18.17
2023-04-16T21:41:28.983Z,20.87
2023-04-16T21:43:55.778Z,20.87
2023-04-16T21:46:23.078Z,21.03
2023-04-16T21:48:50.026Z,19.07
2023-04-16T21:51:18.192Z,21.07
2023-04-16T21:53:45.058Z,20.70
2023-04-16T21:56:11.886Z,23.97
2023-04-16T21:58:38.691Z,24.40
2023-04-16T22:01:05.795Z,21.50
2023-04-16T22:03:33.593Z,21.57
2023-04-16T22:06:01.474Z,24.27
2023-04-16T22:08:29.488Z,23.83
2023-04-16T22:10:58.388Z,26.43
2023-04-16T22:13:26.288Z,22.90
2023-04-16T22:15:53.564Z,31.10
2023-04-16T22:18:20.856Z,22.50
2023-04-16T22:20:50.781Z,22.77
2023-04-16T22:23:17.616Z,22.30
2023-04-16T22:25:44.536Z,25.87
2023-04-16T22:28:11.549Z,23.63
2023-04-16T22:30:38.363Z,26.40
2023-04-16T22:33:05.490Z,28.20
2023-04-16T22:35:32.768Z,31.53
2023-04-16T22:37:59.559Z,30.77
2023-04-16T22:40:26.386Z,31.63
2023-04-16T22:42:53.155Z,32.07
2023-04-16T22:45:19.963Z,27.03
2023-04-16T22:47:46.796Z,28.83
2023-04-16T22:50:13.683Z,27.23
2023-04-16T22:52:40.666Z,25.27
2023-04-16T22:55:08.288Z,24.50
2023-04-16T22:57:35.158Z,27.93
2023-04-16T23:00:01.941Z,28.70
2023-04-16T23:02:28.891Z,23.87
2023-04-16T23:04:56.276Z,26.00
2023-04-16T23:07:23.019Z,20.77
2023-04-16T23:09:49.853Z,27.37
2023-04-16T23:12:16.676Z,22.40
2023-04-16T23:14:45.977Z,21.87
2023-04-16T23:17:13.849Z,25.10
2023-04-16T23:19:40.722Z,24.30
2023-04-16T23:22:07.636Z,23.17
2023-04-16T23:24:34.422Z,27.63
2023-04-16T23:27:01.456Z,27.03
2023-04-16T23:29:28.441Z,23.87
2023-04-16T23:31:55.315Z,21.53
2023-04-16T23:34:22.238Z,23.03
2023-04-16T23:36:49.050Z,23.07
2023-04-16T23:39:15.961Z,28.00
2023-04-16T23:41:42.783Z,29.90
2023-04-16T23:44:09.602Z,26.30
2023-04-16T23:46:36.611Z,23.90
2023-04-16T23:49:03.723Z,29.43
2023-04-16T23:51:31.563Z,25.90
2023-04-16T23:53:58.427Z,24.53
2023-04-16T23:56:25.427Z,28.13
2023-04-16T23:58:52.220Z,24.50
